createdAt,value
2023-05-18T00:03:01.837Z,8.48
2023-05-18T00:07:04.624Z,8.35
2023-05-18T00:11:07.062Z,8.24
2023-05-18T00:15:10.101Z,8.12
2023-05-18T00:19:14.773Z,8.05
2023-05-18T00:23:17.312Z,7.98
2023-05-18T00:27:19.216Z,7.92
2023-05-18T00:31:21.300Z,7.87
2023-05-18T00:35:23.272Z,7.82
2023-05-18T00:39:25.176Z,7.78
2023-05-18T00:43:27.163Z,7.76
2023-05-18T00:47:29.227Z,7.68
2023-05-18T00:51:32.869Z,7.65
2023-05-18T00:55:35.561Z,7.61
2023-05-18T00:59:37.630Z,7.57
2023-05-18T01:03:39.733Z,7.52
2023-05-18T01:07:42.942Z,7.48
2023-05-18T01:11:50.589Z,7.49
2023-05-18T01:15:57.076Z,7.49
2023-05-18T01:20:13.979Z,7.45
2023-05-18T01:24:35.675Z,7.41
2023-05-18T01:28:38.318Z,7.38
2023-05-18T01:32:42.007Z,7.38
2023-05-18T01:36:43.999Z,7.37
2023-05-18T01:41:13.470Z,7.37
2023-05-18T01:45:25.752Z,7.37
2023-05-18T01:49:35.822Z,7.32
2023-05-18T01:53:44.696Z,7.27
2023-05-18T01:57:49.362Z,7.25
2023-05-18T02:01:59.159Z,7.24
2023-05-18T02:06:01.885Z,7.21
2023-05-18T02:10:05.298Z,7.18
2023-05-18T02:14:07.260Z,7.19
2023-05-18T02:18:09.679Z,7.16
2023-05-18T02:22:11.748Z,7.13
2023-05-18T02:26:13.741Z,7.11
2023-05-18T02:30:16.296Z,7.11
2023-05-18T02:34:19.281Z,7.10
2023-05-18T02:38:21.324Z,7.09
2023-05-18T02:42:23.348Z,7.05
2023-05-18T02:46:25.326Z,7.04
2023-05-18T02:50:27.350Z,7.07
2023-05-18T02:54:29.375Z,7.08
2023-05-18T02:58:31.350Z,7.09
2023-05-18T03:02:43.813Z,7.09
2023-05-18T03:06:46.832Z,7.11
2023-05-18T03:10:49.878Z,7.15
2023-05-18T03:14:51.927Z,7.16
2023-05-18T03:19:01.704Z,7.15
2023-05-18T03:23:08.490Z,7.15
2023-05-18T03:27:12.642Z,7.15
2023-05-18T03:31:14.758Z,7.19
2023-05-18T03:35:17.541Z,7.21
2023-05-18T03:39:20.123Z,7.20
2023-05-18T03:43:26.157Z,7.23
2023-05-18T03:47:30.386Z,7.27
2023-05-18T03:51:32.499Z,7.34
2023-05-18T03:55:35.776Z,7.35
2023-05-18T03:59:37.867Z,7.39
2023-05-18T04:03:40.309Z,7.44
2023-05-18T04:07:46.144Z,7.46
2023-05-18T04:11:48.133Z,7.53
2023-05-18T04:15:50.358Z,7.62
2023-05-18T04:19:53.414Z,7.71
2023-05-18T04:23:55.952Z,7.77
2023-05-18T04:27:58.598Z,7.81
2023-05-18T04:32:00.617Z,7.86
2023-05-18T04:36:04.482Z,7.90
2023-05-18T04:40:08.024Z,7.92
2023-05-18T04:44:13.629Z,7.93
2023-05-18T04:48:19.488Z,7.96
2023-05-18T04:52:22.008Z,7.97
2023-05-18T04:56:24.019Z,8.01
2023-05-18T05:00:29.080Z,8.06
2023-05-18T05:04:31.281Z,8.18
2023-05-18T05:08:34.684Z,8.30
2023-05-18T05:12:38.195Z,8.34
2023-05-18T05:16:41.114Z,8.45
2023-05-18T05:20:43.465Z,8.47
2023-05-18T05:24:45.744Z,8.57
2023-05-18T05:28:47.850Z,8.70
2023-05-18T05:32:50.012Z,8.83
2023-05-18T05:36:52.300Z,8.96
2023-05-18T05:40:54.316Z,8.99
2023-05-18T05:44:56.251Z,9.02
2023-05-18T05:49:01.505Z,9.02
2023-05-18T05:53:03.584Z,9.07
2023-05-18T05:57:08.493Z,9.14
2023-05-18T06:01:10.798Z,9.26
2023-05-18T06:05:12.941Z,9.38
2023-05-18T06:09:15.678Z,9.42
2023-05-18T06:13:17.955Z,9.44
2023-05-18T06:17:26.974Z,9.58
2023-05-18T06:21:29.590Z,9.70
2023-05-18T06:25:32.938Z,9.78
2023-05-18T06:29:48.168Z,9.80
2023-05-18T06:34:13.376Z,9.86
2023-05-18T06:38:15.787Z,9.91
2023-05-18T06:42:17.788Z,9.94
2023-05-18T06:46:28.195Z,10.01
2023-05-18T06:50:36.251Z,10.14
2023-05-18T06:54:38.604Z,10.19
2023-05-18T06:58:43.810Z,10.13
2023-05-18T07:02:47.065Z,10.05
2023-05-18T07:06:49.676Z,10.06
2023-05-18T07:10:51.915Z,10.13
2023-05-18T07:14:53.821Z,10.21
2023-05-18T07:18:57.353Z,10.23
2023-05-18T07:22:59.329Z,10.23
2023-05-18T07:27:01.285Z,10.23
2023-05-18T07:31:04.036Z,10.22
2023-05-18T07:35:06.252Z,10.24
2023-05-18T07:39:08.611Z,10.33
2023-05-18T07:43:11.301Z,10.38
2023-05-18T07:47:13.383Z,10.50
2023-05-18T07:51:15.335Z,10.59
2023-05-18T07:55:17.374Z,10.57
2023-05-18T07:59:19.677Z,10.62
2023-05-18T08:03:22.654Z,10.75
2023-05-18T08:07:26.010Z,10.73
2023-05-18T08:11:27.938Z,10.71
2023-05-18T08:15:30.208Z,10.75
2023-05-18T08:19:32.330Z,10.82
2023-05-18T08:23:34.842Z,10.79
2023-05-18T08:27:36.979Z,10.75
2023-05-18T08:31:40.784Z,10.73
2023-05-18T08:35:42.813Z,10.76
2023-05-18T08:39:45.692Z,10.85
2023-05-18T08:43:58.847Z,10.95
2023-05-18T08:48:02.685Z,10.98
2023-05-18T08:52:07.686Z,10.97
2023-05-18T08:56:10.957Z,10.96
2023-05-18T09:00:15.022Z,10.96
2023-05-18T09:04:19.214Z,11.03
2023-05-18T09:08:22.906Z,11.05
2023-05-18T09:12:27.621Z,11.12
2023-05-18T09:16:30.344Z,11.15
2023-05-18T09:20:32.668Z,11.19
2023-05-18T09:24:34.636Z,11.28
2023-05-18T09:28:41.462Z,11.30
2023-05-18T09:32:46.810Z,11.29
2023-05-18T09:36:57.273Z,11.35
2023-05-18T09:41:00.542Z,11.39
2023-05-18T09:45:23.744Z,11.41
2023-05-18T09:49:28.371Z,11.46
2023-05-18T09:53:30.366Z,11.51
2023-05-18T09:57:32.319Z,11.63
2023-05-18T10:01:34.371Z,11.80
2023-05-18T10:05:39.060Z,11.90
2023-05-18T10:09:43.041Z,12.04
2023-05-18T10:13:46.347Z,12.09
2023-05-18T10:17:50.503Z,12.16
2023-05-18T10:21:53.490Z,12.20
2023-05-18T10:25:55.441Z,12.27
2023-05-18T10:29:58.412Z,12.32
2023-05-18T10:34:00.945Z,12.30
2023-05-18T10:38:05.051Z,12.40
2023-05-18T10:42:08.981Z,12.47
2023-05-18T10:46:21.690Z,12.56
2023-05-18T10:50:31.354Z,12.66
2023-05-18T10:54:33.709Z,12.74
2023-05-18T10:58:38.112Z,12.73
2023-05-18T11:02:42.387Z,12.67
2023-05-18T11:06:54.587Z,12.65
2023-05-18T11:11:04.474Z,12.62
2023-05-18T11:15:07.636Z,12.64
2023-05-18T11:19:11.173Z,12.66
2023-05-18T11:23:15.823Z,12.65
2023-05-18T11:27:19.232Z,12.65
2023-05-18T11:31:21.243Z,12.57
2023-05-18T11:35:23.772Z,12.64
2023-05-18T11:39:25.767Z,12.69
2023-05-18T11:43:29.385Z,12.77
2023-05-18T11:47:31.812Z,12.87
2023-05-18T11:51:54.329Z,12.84
2023-05-18T11:55:59.570Z,12.79
2023-05-18T12:00:07.488Z,12.75
2023-05-18T12:04:15.415Z,12.66
2023-05-18T12:08:18.888Z,12.66
2023-05-18T12:12:21.199Z,12.72
2023-05-18T12:16:24.643Z,12.69
2023-05-18T12:20:27.864Z,12.68
2023-05-18T12:24:29.932Z,12.58
2023-05-18T12:28:32.001Z,12.55
2023-05-18T12:32:34.120Z,12.45
2023-05-18T12:36:42.764Z,12.37
2023-05-18T12:40:48.093Z,12.33
2023-05-18T12:44:52.921Z,12.35
2023-05-18T12:49:01.070Z,12.37
2023-05-18T12:53:03.178Z,12.38
2023-05-18T12:57:07.147Z,12.33
2023-05-18T13:01:10.753Z,12.34
2023-05-18T13:05:13.031Z,12.35
2023-05-18T13:09:16.292Z,12.35
2023-05-18T13:13:18.456Z,12.34
2023-05-18T13:17:23.555Z,12.37
2023-05-18T13:21:25.866Z,12.45
2023-05-18T13:25:27.968Z,12.52
2023-05-18T13:29:29.898Z,12.50
2023-05-18T13:33:31.984Z,12.57
2023-05-18T13:37:34.427Z,12.61
2023-05-18T13:41:36.525Z,12.62
2023-05-18T13:45:38.698Z,12.66
2023-05-18T13:49:42.308Z,12.71
2023-05-18T13:53:44.267Z,12.65
2023-05-18T13:57:46.344Z,12.55
2023-05-18T14:01:49.139Z,12.50
2023-05-18T14:05:51.457Z,12.56
2023-05-18T14:09:53.503Z,12.61
2023-05-18T14:13:55.450Z,12.67
2023-05-18T14:17:57.555Z,12.66
2023-05-18T14:21:59.576Z,12.60
2023-05-18T14:26:01.593Z,12.56
2023-05-18T14:30:05.677Z,12.53
2023-05-18T14:34:07.702Z,12.52
2023-05-18T14:38:09.612Z,12.60
2023-05-18T14:42:11.532Z,12.69
2023-05-18T14:46:13.606Z,12.74
2023-05-18T14:50:16.145Z,12.72
2023-05-18T14:54:22.008Z,12.65
2023-05-18T14:58:23.916Z,12.56
2023-05-18T15:02:26.001Z,12.52
2023-05-18T15:06:28.766Z,12.52
2023-05-18T15:10:30.952Z,12.45
2023-05-18T15:14:33.074Z,12.39
2023-05-18T15:18:35.272Z,12.35
2023-05-18T15:22:39.936Z,12.28
2023-05-18T15:26:42.375Z,12.24
2023-05-18T15:30:44.657Z,12.19
2023-05-18T15:34:46.736Z,12.18
2023-05-18T15:38:48.680Z,12.17
2023-05-18T15:42:50.592Z,12.15
2023-05-18T15:46:52.590Z,12.12
2023-05-18T15:50:54.588Z,12.09
2023-05-18T15:54:56.635Z,12.06
2023-05-18T15:58:58.644Z,12.06
2023-05-18T16:03:00.787Z,12.05
2023-05-18T16:07:03.267Z,12.00
2023-05-18T16:11:06.565Z,11.97
2023-05-18T16:15:08.941Z,11.96
2023-05-18T16:19:11.054Z,11.97
2023-05-18T16:23:13.066Z,11.95
2023-05-18T16:27:15.175Z,11.92
2023-05-18T16:31:17.380Z,11.92
2023-05-18T16:35:19.604Z,11.93
2023-05-18T16:39:21.607Z,11.93
2023-05-18T16:43:23.646Z,11.92
2023-05-18T16:47:27.146Z,11.88
2023-05-18T16:51:29.177Z,11.85
2023-05-18T16:55:31.137Z,11.82
2023-05-18T16:59:33.935Z,11.81
2023-05-18T17:03:36.107Z,11.85
2023-05-18T17:07:38.202Z,11.86
2023-05-18T17:11:40.361Z,11.85
2023-05-18T17:15:42.505Z,11.82
2023-05-18T17:19:44.484Z,11.79
2023-05-18T17:23:46.391Z,11.75
2023-05-18T17:27:48.320Z,11.72
2023-05-18T17:31:50.239Z,11.68
2023-05-18T17:35:52.336Z,11.61
2023-05-18T17:39:54.289Z,11.58
2023-05-18T17:43:56.276Z,11.51
2023-05-18T17:47:58.382Z,11.44
2023-05-18T17:52:00.443Z,11.40
2023-05-18T17:56:02.649Z,11.36
2023-05-18T18:00:05.701Z,11.29
2023-05-18T18:04:13.195Z,11.19
2023-05-18T18:08:15.779Z,11.13
2023-05-18T18:12:18.194Z,11.10
2023-05-18T18:16:21.049Z,11.08
2023-05-18T18:20:23.191Z,11.08
2023-05-18T18:24:25.237Z,11.10
2023-05-18T18:28:28.807Z,11.15
2023-05-18T18:32:30.842Z,11.19
2023-05-18T18:36:33.152Z,11.27
2023-05-18T18:40:35.292Z,11.32
2023-05-18T18:44:37.313Z,11.32
2023-05-18T18:48:39.235Z,11.29
2023-05-18T18:52:41.209Z,11.30
2023-05-18T18:56:43.582Z,11.34
2023-05-18T19:00:45.489Z,11.39
2023-05-18T19:04:47.871Z,11.44
2023-05-18T19:08:51.748Z,11.48
2023-05-18T19:12:53.777Z,11.47
2023-05-18T19:16:55.872Z,11.39
2023-05-18T19:21:00.697Z,11.35
2023-05-18T19:25:02.849Z,11.39
2023-05-18T19:29:04.866Z,11.42
2023-05-18T19:33:06.859Z,11.47
2023-05-18T19:37:08.901Z,11.52
2023-05-18T19:41:12.256Z,11.53
2023-05-18T19:45:14.234Z,11.53
2023-05-18T19:49:16.222Z,11.53
2023-05-18T19:53:19.291Z,11.56
2023-05-18T19:57:21.307Z,11.60
2023-05-18T20:01:24.280Z,11.57
2023-05-18T20:05:27.429Z,11.51
2023-05-18T20:09:29.630Z,11.45
2023-05-18T20:13:31.759Z,11.42
2023-05-18T20:17:33.733Z,11.42
2023-05-18T20:21:35.674Z,11.34
2023-05-18T20:25:37.810Z,11.23
2023-05-18T20:29:40.228Z,11.10
2023-05-18T20:33:43.974Z,11.00
2023-05-18T20:37:46.319Z,10.94
2023-05-18T20:41:49.898Z,10.92
2023-05-18T20:45:52.051Z,10.93
2023-05-18T20:49:54.079Z,10.89
2023-05-18T20:53:56.007Z,10.76
2023-05-18T20:57:57.889Z,10.70
2023-05-18T21:02:00.006Z,10.70
2023-05-18T21:06:02.203Z,10.76
2023-05-18T21:10:04.458Z,10.79
2023-05-18T21:14:06.553Z,10.77
2023-05-18T21:18:08.529Z,10.77
2023-05-18T21:22:10.508Z,10.82
2023-05-18T21:26:12.858Z,10.88
2023-05-18T21:30:15.291Z,10.87
2023-05-18T21:34:17.242Z,10.84
2023-05-18T21:38:19.168Z,10.75
2023-05-18T21:42:21.147Z,10.72
2023-05-18T21:46:24.078Z,10.66
2023-05-18T21:50:27.205Z,10.63
2023-05-18T21:54:32.035Z,10.62
2023-05-18T21:58:35.087Z,10.57
2023-05-18T22:02:37.049Z,10.53
2023-05-18T22:06:39.110Z,10.53
2023-05-18T22:10:41.187Z,10.52
2023-05-18T22:14:43.186Z,10.48
2023-05-18T22:18:45.168Z,10.42
2023-05-18T22:22:47.124Z,10.37
2023-05-18T22:26:49.040Z,10.32
2023-05-18T22:30:52.154Z,10.29
2023-05-18T22:34:55.304Z,10.24
2023-05-18T22:38:57.234Z,10.21
2023-05-18T22:42:59.167Z,10.19
2023-05-18T22:47:01.212Z,10.15
2023-05-18T22:51:04.232Z,10.12
2023-05-18T22:55:13.525Z,10.12
2023-05-18T22:59:15.526Z,10.09
2023-05-18T23:03:17.572Z,10.04
2023-05-18T23:07:19.569Z,10.04
2023-05-18T23:11:21.596Z,10.06
2023-05-18T23:15:23.778Z,10.10
2023-05-18T23:19:26.707Z,10.11
2023-05-18T23:23:28.727Z,10.12
2023-05-18T23:27:30.884Z,10.15
2023-05-18T23:31:32.856Z,10.17
2023-05-18T23:35:35.308Z,10.17
2023-05-18T23:39:40.850Z,10.14
2023-05-18T23:43:43.095Z,10.10
2023-05-18T23:47:45.861Z,10.06
2023-05-18T23:51:52.123Z,10.07
2023-05-18T23:55:59.225Z,10.05
